Terminal Aerodrome Forecast
Issued by NWS Wakefield, VA

Home | Current Version | Previous Version | Text Only | Print | Product List | Glossary On
Versions: 1 2 3 4 5 6 7 8 9 10 11 12 13 14 15 16 17 18 19 20 21 22 23 24 25 26 27
000
FTUS41 KAKQ 040500
TAFORF
TAF
KORF 040535Z 0406/0506 22014KT 4SM -DZ BR OVC004
     FM041500 23014G22KT P6SM OVC008
     FM041900 22013G22KT 4SM BR OVC020
     FM050400 36012KT 4SM -RA OVC007=

USA.gov is the U.S. government's official web portal to all federal, state and local government web resources and services.